Smithfield, Illinois
Current Conditions -  °F | °C
As of 4:15 PM on Saturday 20 Dec 2014 (Local Time) from KMQB Reporting Station
Haze Haze  
Wind Chill: 29°   Ceiling: 1400
Heat Index: 35°   Visibility: 4mi
Dew Point: 33°   Wind: 7mph
Humidity: 91%   Direction: 160°SSE
Pressure: 30.23"   Gusts: NA
Location:  40.47°N, 90.29°W
Report Text: KMQB 202215Z AUTO 16006KT 4SM BR OVC014 02/01 A3023 RMK AO2 T00180005
Loading
Personal Weather Stations






























Interactive Weather Map New forecast layout! Learn more

10-Day Weather Forecast

Advertisements
Track Severe Weather on mobile